Terminal Aerodrome Forecast
Issued by NWS Sterling, VA

Current Version | Previous Version | Graphics & Text | Print | Product List | Glossary On
Versions: 1 2 3 4 5 6 7 8 9 10 11 12 13 14 15 16 17 18 19 20 21 22 23 24 25
000
FTUS41 KLWX 282340
TAFDCA
TAF
KDCA 282340Z 2900/2924 20006KT P6SM VCTS BKN100CB
     FM290100 22005KT P6SM BKN100
     FM290300 VRB03KT P6SM BKN100
     FM290900 06007KT P6SM SCT250
     FM291200 07007KT P6SM BKN050
     FM291700 14006KT P6SM BKN045=

USA.gov is the U.S. government's official web portal to all federal, state and local government web resources and services.